NCAR-RAP Real-Time Weather Data

Output produced by METARs form (17 September 2019  16:54 UTC)
found at http://weather.rap.ucar.edu/surface/
 
KERI 171551Z 02009KT 10SM CLR 23/11 A3020 RMK AO2 SLP224 T02280111
KERI 171451Z 09005KT 10SM CLR 22/10 A3020 RMK AO2 SLP224 T02220100 51010
KERI 171351Z 09006KT 10SM CLR 21/12 A3020 RMK AO2 SLP224 T02060122
KERI 171251Z 12004KT 10SM FEW009 18/16 A3019 RMK AO2 SLP221 T01830156
KERI 171242Z 10004KT 10SM SCT005 SCT011 18/16 A3019 RMK AO2 T01830156
KERI 171225Z 00000KT 10SM BKN005 18/16 A3018 RMK AO2 T01780156
KERI 171151Z 00000KT 5SM BR OVC003 17/15 A3017 RMK AO2 SLP215 T01670150 10183 20156 53016
KERI 171122Z 00000KT 3SM BR BKN003 16/14 A3017 RMK AO2 T01610144
KERI 171113Z 12003KT 5SM BR SCT002 16/14 A3016 RMK AO2 T01610144
KERI 171051Z 00000KT 10SM CLR 16/14 A3015 RMK AO2 SLP209 T01560139
KERI 170951Z 00000KT 10SM CLR 16/14 A3013 RMK AO2 SLP201 T01560139
KERI 170851Z AUTO 00000KT 10SM CLR 16/14 A3012 RMK AO2 SLP198 T01610139 55002
KERI 170751Z AUTO 00000KT 10SM CLR 17/14 A3012 RMK AO2 SLP197 T01670144
KERI 170651Z AUTO 00000KT 10SM CLR 18/15 A3012 RMK AO2 SLP196 T01780150
KERI 170551Z AUTO 06005KT 10SM SCT012 18/16 A3013 RMK AO2 SLP199 T01830156 10206 20183 53006
KERI 170451Z AUTO 05005KT 10SM OVC012 19/16 A3012 RMK AO2 SLP196 T01940161 402440189
KERI 170433Z AUTO 05005KT 10SM BKN011 19/16 A3012 RMK AO2 T01940161
KERI 170400Z AUTO 08009KT 10SM SCT011 19/16 A3011 RMK AO2 T01940161
KERI 170351Z 07011KT 10SM BKN011 19/16 A3011 RMK AO2 SLP194 T01940161
KERI 170251Z 04009KT 10SM OVC012 20/16 A3011 RMK AO2 SLP193 T02000161 53010
KERI 170051Z 04011KT 10SM BKN012 21/17 A3009 RMK AO2 SLP185 T02060172
KERI 170032Z 04009KT 10SM BKN012 21/17 A3008 RMK AO2 T02060172
KERI 162351Z 06007KT 10SM SCT012 21/17 A3008 RMK AO2 SLP183 T02060172 10244 20206 51006
KERI 162251Z 05008KT 10SM FEW011 21/17 A3008 RMK AO2 SLP181 T02110172
KERI 162151Z 03010KT 10SM FEW013 22/18 A3007 RMK AO2 SLP178 T02220178
KERI 162051Z 04011KT 10SM CLR 23/17 A3006 RMK AO2 SLP176 T02280172 56003
KERI 161951Z 03011KT 10SM FEW065 23/18 A3006 RMK AO2 SLP176 T02330178